sensor_id;sensor_type;location;lat;lon;timestamp;P1;durP1;ratioP1;P2;durP2;ratioP2
5819;SDS011;2936;47.348;9.640;2023-12-29T00:00:04;8.00;;;7.25;;
5819;SDS011;2936;47.348;9.640;2023-12-29T00:02:35;9.02;;;7.43;;
5819;SDS011;2936;47.348;9.640;2023-12-29T00:05:03;7.85;;;6.93;;
5819;SDS011;2936;47.348;9.640;2023-12-29T00:07:31;10.50;;;8.25;;
5819;SDS011;2936;47.348;9.640;2023-12-29T00:09:59;12.40;;;8.95;;
5819;SDS011;2936;47.348;9.640;2023-12-29T00:12:28;8.00;;;7.28;;
5819;SDS011;2936;47.348;9.640;2023-12-29T00:14:57;14.45;;;8.15;;
5819;SDS011;2936;47.348;9.640;2023-12-29T00:17:27;8.45;;;7.43;;
5819;SDS011;2936;47.348;9.640;2023-12-29T00:19:57;9.70;;;7.15;;
5819;SDS011;2936;47.348;9.640;2023-12-29T00:22:24;11.98;;;7.47;;
5819;SDS011;2936;47.348;9.640;2023-12-29T00:24:52;8.20;;;6.40;;
5819;SDS011;2936;47.348;9.640;2023-12-29T00:27:23;6.75;;;6.05;;
5819;SDS011;2936;47.348;9.640;2023-12-29T00:29:51;7.25;;;6.65;;
5819;SDS011;2936;47.348;9.640;2023-12-29T00:32:20;6.72;;;6.13;;
5819;SDS011;2936;47.348;9.640;2023-12-29T00:34:47;8.77;;;5.85;;
5819;SDS011;2936;47.348;9.640;2023-12-29T00:37:16;4.78;;;4.47;;
5819;SDS011;2936;47.348;9.640;2023-12-29T00:39:44;5.32;;;4.93;;
5819;SDS011;2936;47.348;9.640;2023-12-29T00:42:12;6.90;;;6.20;;
5819;SDS011;2936;47.348;9.640;2023-12-29T00:44:40;8.05;;;5.00;;
5819;SDS011;2936;47.348;9.640;2023-12-29T00:47:08;6.28;;;5.78;;
5819;SDS011;2936;47.348;9.640;2023-12-29T00:49:38;6.53;;;5.65;;
5819;SDS011;2936;47.348;9.640;2023-12-29T00:52:06;5.82;;;5.38;;
5819;SDS011;2936;47.348;9.640;2023-12-29T00:54:45;8.50;;;6.03;;
5819;SDS011;2936;47.348;9.640;2023-12-29T00:57:13;6.20;;;5.70;;
5819;SDS011;2936;47.348;9.640;2023-12-29T00:59:40;8.80;;;5.93;;
5819;SDS011;2936;47.348;9.640;2023-12-29T01:02:09;8.45;;;6.05;;
5819;SDS011;2936;47.348;9.640;2023-12-29T01:04:37;6.40;;;5.15;;
5819;SDS011;2936;47.348;9.640;2023-12-29T01:07:05;5.60;;;5.10;;
5819;SDS011;2936;47.348;9.640;2023-12-29T01:09:38;6.45;;;5.55;;
5819;SDS011;2936;47.348;9.640;2023-12-29T01:12:06;8.27;;;5.65;;
5819;SDS011;2936;47.348;9.640;2023-12-29T01:14:34;8.98;;;6.55;;
5819;SDS011;2936;47.348;9.640;2023-12-29T01:17:02;8.23;;;6.40;;
5819;SDS011;2936;47.348;9.640;2023-12-29T01:19:31;6.70;;;5.93;;
5819;SDS011;2936;47.348;9.640;2023-12-29T01:21:58;7.53;;;6.82;;
5819;SDS011;2936;47.348;9.640;2023-12-29T01:24:26;7.40;;;6.00;;
5819;SDS011;2936;47.348;9.640;2023-12-29T01:26:56;5.53;;;5.00;;
5819;SDS011;2936;47.348;9.640;2023-12-29T01:29:24;5.50;;;5.18;;
5819;SDS011;2936;47.348;9.640;2023-12-29T01:31:52;5.97;;;5.43;;
5819;SDS011;2936;47.348;9.640;2023-12-29T01:34:19;4.90;;;4.60;;
5819;SDS011;2936;47.348;9.640;2023-12-29T01:36:47;5.05;;;4.65;;
5819;SDS011;2936;47.348;9.640;2023-12-29T01:39:17;3.88;;;3.65;;
5819;SDS011;2936;47.348;9.640;2023-12-29T01:41:46;4.53;;;4.05;;
5819;SDS011;2936;47.348;9.640;2023-12-29T01:44:22;5.30;;;4.35;;
5819;SDS011;2936;47.348;9.640;2023-12-29T01:46:50;3.70;;;3.50;;
5819;SDS011;2936;47.348;9.640;2023-12-29T01:49:18;5.05;;;4.38;;
5819;SDS011;2936;47.348;9.640;2023-12-29T01:51:47;3.35;;;3.25;;
5819;SDS011;2936;47.348;9.640;2023-12-29T01:54:16;4.40;;;3.85;;
5819;SDS011;2936;47.348;9.640;2023-12-29T01:56:46;4.32;;;3.38;;
5819;SDS011;2936;47.348;9.640;2023-12-29T01:59:14;3.53;;;3.30;;
5819;SDS011;2936;47.348;9.640;2023-12-29T02:01:44;3.45;;;3.35;;
5819;SDS011;2936;47.348;9.640;2023-12-29T02:04:12;3.40;;;3.30;;
5819;SDS011;2936;47.348;9.640;2023-12-29T02:06:40;3.95;;;3.60;;
5819;SDS011;2936;47.348;9.640;2023-12-29T02:09:08;3.63;;;3.42;;
5819;SDS011;2936;47.348;9.640;2023-12-29T02:11:38;4.78;;;3.83;;
5819;SDS011;2936;47.348;9.640;2023-12-29T02:14:06;7.07;;;4.07;;
5819;SDS011;2936;47.348;9.640;2023-12-29T02:16:35;4.28;;;3.90;;
5819;SDS011;2936;47.348;9.640;2023-12-29T02:19:08;4.63;;;3.42;;
5819;SDS011;2936;47.348;9.640;2023-12-29T02:21:41;4.22;;;3.95;;
5819;SDS011;2936;47.348;9.640;2023-12-29T02:24:08;4.43;;;4.00;;
5819;SDS011;2936;47.348;9.640;2023-12-29T02:26:37;4.60;;;4.25;;
5819;SDS011;2936;47.348;9.640;2023-12-29T02:29:06;4.25;;;3.85;;
5819;SDS011;2936;47.348;9.640;2023-12-29T02:31:36;4.35;;;4.07;;
5819;SDS011;2936;47.348;9.640;2023-12-29T02:34:07;4.80;;;3.67;;
5819;SDS011;2936;47.348;9.640;2023-12-29T02:36:37;3.83;;;3.63;;
5819;SDS011;2936;47.348;9.640;2023-12-29T02:39:08;3.50;;;3.30;;
5819;SDS011;2936;47.348;9.640;2023-12-29T02:41:38;4.70;;;3.22;;
5819;SDS011;2936;47.348;9.640;2023-12-29T02:44:06;3.67;;;3.38;;
5819;SDS011;2936;47.348;9.640;2023-12-29T02:46:34;2.63;;;2.53;;
5819;SDS011;2936;47.348;9.640;2023-12-29T02:49:02;3.50;;;3.30;;
5819;SDS011;2936;47.348;9.640;2023-12-29T02:51:30;2.90;;;2.80;;
5819;SDS011;2936;47.348;9.640;2023-12-29T02:53:58;4.28;;;3.75;;
5819;SDS011;2936;47.348;9.640;2023-12-29T02:56:26;5.20;;;4.70;;
5819;SDS011;2936;47.348;9.640;2023-12-29T02:58:56;8.32;;;4.90;;
5819;SDS011;2936;47.348;9.640;2023-12-29T03:01:24;7.70;;;4.65;;
5819;SDS011;2936;47.348;9.640;2023-12-29T03:03:54;5.18;;;4.78;;
5819;SDS011;2936;47.348;9.640;2023-12-29T03:06:22;5.15;;;4.68;;
5819;SDS011;2936;47.348;9.640;2023-12-29T03:08:50;5.43;;;5.03;;
5819;SDS011;2936;47.348;9.640;2023-12-29T03:11:18;7.35;;;5.85;;
5819;SDS011;2936;47.348;9.640;2023-12-29T03:13:46;5.60;;;5.05;;
5819;SDS011;2936;47.348;9.640;2023-12-29T03:16:16;5.95;;;5.45;;
5819;SDS011;2936;47.348;9.640;2023-12-29T03:18:43;6.10;;;5.50;;
5819;SDS011;2936;47.348;9.640;2023-12-29T03:21:12;6.93;;;4.50;;
5819;SDS011;2936;47.348;9.640;2023-12-29T03:23:40;5.93;;;5.20;;
5819;SDS011;2936;47.348;9.640;2023-12-29T03:26:08;5.05;;;4.57;;
5819;SDS011;2936;47.348;9.640;2023-12-29T03:28:36;4.78;;;4.38;;
5819;SDS011;2936;47.348;9.640;2023-12-29T03:31:03;4.00;;;3.70;;
5819;SDS011;2936;47.348;9.640;2023-12-29T03:33:33;5.82;;;3.75;;
5819;SDS011;2936;47.348;9.640;2023-12-29T03:36:01;3.05;;;2.95;;
5819;SDS011;2936;47.348;9.640;2023-12-29T03:38:29;3.72;;;3.42;;
5819;SDS011;2936;47.348;9.640;2023-12-29T03:40:58;2.65;;;2.55;;
5819;SDS011;2936;47.348;9.640;2023-12-29T03:43:26;3.13;;;2.92;;
5819;SDS011;2936;47.348;9.640;2023-12-29T03:45:57;3.70;;;3.50;;
5819;SDS011;2936;47.348;9.640;2023-12-29T03:48:25;3.35;;;3.15;;
5819;SDS011;2936;47.348;9.640;2023-12-29T03:50:55;3.72;;;3.53;;
5819;SDS011;2936;47.348;9.640;2023-12-29T03:53:23;3.78;;;3.47;;
5819;SDS011;2936;47.348;9.640;2023-12-29T03:55:50;3.28;;;2.80;;
5819;SDS011;2936;47.348;9.640;2023-12-29T03:58:19;3.10;;;2.92;;
5819;SDS011;2936;47.348;9.640;2023-12-29T04:00:48;3.38;;;3.15;;
5819;SDS011;2936;47.348;9.640;2023-12-29T04:03:15;3.40;;;3.10;;
5819;SDS011;2936;47.348;9.640;2023-12-29T04:05:43;2.83;;;2.63;;
5819;SDS011;2936;47.348;9.640;2023-12-29T04:08:15;3.95;;;3.28;;
5819;SDS011;2936;47.348;9.640;2023-12-29T04:10:43;3.17;;;2.92;;
5819;SDS011;2936;47.348;9.640;2023-12-29T04:13:11;3.05;;;2.95;;
5819;SDS011;2936;47.348;9.640;2023-12-29T04:15:39;3.83;;;3.28;;
5819;SDS011;2936;47.348;9.640;2023-12-29T04:18:07;4.10;;;3.38;;
5819;SDS011;2936;47.348;9.640;2023-12-29T04:20:35;5.75;;;4.15;;
5819;SDS011;2936;47.348;9.640;2023-12-29T04:23:03;3.45;;;3.25;;
5819;SDS011;2936;47.348;9.640;2023-12-29T04:25:33;5.45;;;3.55;;
5819;SDS011;2936;47.348;9.640;2023-12-29T04:28:00;4.30;;;4.10;;
5819;SDS011;2936;47.348;9.640;2023-12-29T04:30:28;3.50;;;3.40;;
5819;SDS011;2936;47.348;9.640;2023-12-29T04:32:56;4.60;;;4.30;;
5819;SDS011;2936;47.348;9.640;2023-12-29T04:35:24;5.10;;;4.70;;
5819;SDS011;2936;47.348;9.640;2023-12-29T04:37:52;4.55;;;4.20;;
5819;SDS011;2936;47.348;9.640;2023-12-29T04:40:19;6.13;;;5.00;;
5819;SDS011;2936;47.348;9.640;2023-12-29T04:42:49;5.40;;;5.03;;
5819;SDS011;2936;47.348;9.640;2023-12-29T04:45:17;6.07;;;5.50;;
5819;SDS011;2936;47.348;9.640;2023-12-29T04:47:46;4.97;;;4.60;;
5819;SDS011;2936;47.348;9.640;2023-12-29T04:50:13;5.95;;;5.55;;
5819;SDS011;2936;47.348;9.640;2023-12-29T04:52:41;5.07;;;4.57;;
5819;SDS011;2936;47.348;9.640;2023-12-29T04:55:09;5.78;;;5.22;;
5819;SDS011;2936;47.348;9.640;2023-12-29T04:57:38;8.20;;;6.00;;
5819;SDS011;2936;47.348;9.640;2023-12-29T05:00:08;5.30;;;4.88;;
5819;SDS011;2936;47.348;9.640;2023-12-29T05:02:37;6.38;;;5.55;;
5819;SDS011;2936;47.348;9.640;2023-12-29T05:05:05;8.05;;;5.22;;
5819;SDS011;2936;47.348;9.640;2023-12-29T05:07:32;4.82;;;4.43;;
5819;SDS011;2936;47.348;9.640;2023-12-29T05:10:02;4.88;;;4.47;;
5819;SDS011;2936;47.348;9.640;2023-12-29T05:12:30;5.15;;;4.68;;
5819;SDS011;2936;47.348;9.640;2023-12-29T05:14:58;6.60;;;5.55;;
5819;SDS011;2936;47.348;9.640;2023-12-29T05:17:29;5.90;;;5.45;;
5819;SDS011;2936;47.348;9.640;2023-12-29T05:19:57;4.90;;;4.10;;
5819;SDS011;2936;47.348;9.640;2023-12-29T05:22:25;5.90;;;4.80;;
5819;SDS011;2936;47.348;9.640;2023-12-29T05:24:55;4.57;;;4.28;;
5819;SDS011;2936;47.348;9.640;2023-12-29T05:27:25;5.53;;;5.07;;
5819;SDS011;2936;47.348;9.640;2023-12-29T05:29:56;5.30;;;4.75;;
5819;SDS011;2936;47.348;9.640;2023-12-29T05:32:24;4.97;;;4.68;;
5819;SDS011;2936;47.348;9.640;2023-12-29T05:34:54;7.88;;;5.18;;
5819;SDS011;2936;47.348;9.640;2023-12-29T05:37:22;7.00;;;5.45;;
5819;SDS011;2936;47.348;9.640;2023-12-29T05:39:49;4.85;;;4.55;;
5819;SDS011;2936;47.348;9.640;2023-12-29T05:42:17;5.78;;;5.28;;
5819;SDS011;2936;47.348;9.640;2023-12-29T05:44:46;5.18;;;4.88;;
5819;SDS011;2936;47.348;9.640;2023-12-29T05:47:15;5.38;;;4.95;;
5819;SDS011;2936;47.348;9.640;2023-12-29T05:49:43;5.35;;;4.95;;
5819;SDS011;2936;47.348;9.640;2023-12-29T05:52:13;5.78;;;5.28;;
5819;SDS011;2936;47.348;9.640;2023-12-29T05:54:43;5.53;;;5.03;;
5819;SDS011;2936;47.348;9.640;2023-12-29T05:57:11;6.80;;;6.10;;
5819;SDS011;2936;47.348;9.640;2023-12-29T05:59:39;7.25;;;5.85;;
5819;SDS011;2936;47.348;9.640;2023-12-29T06:02:09;8.07;;;5.72;;
5819;SDS011;2936;47.348;9.640;2023-12-29T06:04:36;9.70;;;6.00;;
5819;SDS011;2936;47.348;9.640;2023-12-29T06:07:04;6.13;;;5.07;;
5819;SDS011;2936;47.348;9.640;2023-12-29T06:09:34;6.53;;;5.90;;
5819;SDS011;2936;47.348;9.640;2023-12-29T06:12:02;6.70;;;6.03;;
5819;SDS011;2936;47.348;9.640;2023-12-29T06:14:30;8.32;;;5.90;;
5819;SDS011;2936;47.348;9.640;2023-12-29T06:16:58;7.90;;;5.60;;
5819;SDS011;2936;47.348;9.640;2023-12-29T06:19:27;6.05;;;5.60;;
5819;SDS011;2936;47.348;9.640;2023-12-29T06:21:57;5.50;;;5.00;;
5819;SDS011;2936;47.348;9.640;2023-12-29T06:24:25;6.85;;;5.68;;
5819;SDS011;2936;47.348;9.640;2023-12-29T06:26:57;5.82;;;5.32;;
5819;SDS011;2936;47.348;9.640;2023-12-29T06:29:25;6.05;;;5.50;;
5819;SDS011;2936;47.348;9.640;2023-12-29T06:31:53;6.20;;;5.60;;
5819;SDS011;2936;47.348;9.640;2023-12-29T06:34:21;5.82;;;5.15;;
5819;SDS011;2936;47.348;9.640;2023-12-29T06:36:50;8.68;;;6.60;;
5819;SDS011;2936;47.348;9.640;2023-12-29T06:39:19;10.55;;;6.30;;
5819;SDS011;2936;47.348;9.640;2023-12-29T06:41:46;5.95;;;5.57;;
5819;SDS011;2936;47.348;9.640;2023-12-29T06:44:16;7.10;;;5.93;;
5819;SDS011;2936;47.348;9.640;2023-12-29T06:46:44;5.20;;;4.85;;
5819;SDS011;2936;47.348;9.640;2023-12-29T06:49:12;6.60;;;5.82;;
5819;SDS011;2936;47.348;9.640;2023-12-29T06:51:40;4.53;;;4.30;;
5819;SDS011;2936;47.348;9.640;2023-12-29T06:54:08;6.68;;;5.97;;
5819;SDS011;2936;47.348;9.640;2023-12-29T06:56:37;6.60;;;5.35;;
5819;SDS011;2936;47.348;9.640;2023-12-29T06:59:06;5.55;;;5.00;;
5819;SDS011;2936;47.348;9.640;2023-12-29T07:01:36;7.15;;;6.05;;
5819;SDS011;2936;47.348;9.640;2023-12-29T07:04:06;5.70;;;5.20;;
5819;SDS011;2936;47.348;9.640;2023-12-29T07:06:35;12.43;;;7.65;;
5819;SDS011;2936;47.348;9.640;2023-12-29T07:09:03;7.15;;;6.50;;
5819;SDS011;2936;47.348;9.640;2023-12-29T07:11:33;9.70;;;6.95;;
5819;SDS011;2936;47.348;9.640;2023-12-29T07:14:01;10.82;;;7.15;;
5819;SDS011;2936;47.348;9.640;2023-12-29T07:16:29;8.00;;;6.53;;
5819;SDS011;2936;47.348;9.640;2023-12-29T07:18:58;9.45;;;6.70;;
5819;SDS011;2936;47.348;9.640;2023-12-29T07:21:26;7.07;;;6.43;;
5819;SDS011;2936;47.348;9.640;2023-12-29T07:23:54;7.15;;;6.00;;
5819;SDS011;2936;47.348;9.640;2023-12-29T07:26:22;5.50;;;5.00;;
5819;SDS011;2936;47.348;9.640;2023-12-29T07:28:50;4.95;;;4.65;;
5819;SDS011;2936;47.348;9.640;2023-12-29T07:31:19;7.45;;;6.18;;
5819;SDS011;2936;47.348;9.640;2023-12-29T07:33:47;6.60;;;6.07;;
5819;SDS011;2936;47.348;9.640;2023-12-29T07:36:17;10.93;;;6.72;;
5819;SDS011;2936;47.348;9.640;2023-12-29T07:38:45;3.42;;;3.33;;
5819;SDS011;2936;47.348;9.640;2023-12-29T07:41:15;13.07;;;3.83;;
5819;SDS011;2936;47.348;9.640;2023-12-29T07:43:43;5.00;;;3.63;;
5819;SDS011;2936;47.348;9.640;2023-12-29T07:46:11;3.30;;;3.15;;
5819;SDS011;2936;47.348;9.640;2023-12-29T07:48:39;3.80;;;3.55;;
5819;SDS011;2936;47.348;9.640;2023-12-29T07:51:07;3.90;;;3.60;;
5819;SDS011;2936;47.348;9.640;2023-12-29T07:53:37;4.50;;;4.05;;
5819;SDS011;2936;47.348;9.640;2023-12-29T07:56:06;7.28;;;3.72;;
5819;SDS011;2936;47.348;9.640;2023-12-29T07:58:34;5.57;;;3.50;;
5819;SDS011;2936;47.348;9.640;2023-12-29T08:01:02;3.45;;;3.25;;
5819;SDS011;2936;47.348;9.640;2023-12-29T08:03:29;8.10;;;3.10;;
5819;SDS011;2936;47.348;9.640;2023-12-29T08:05:57;3.38;;;3.25;;
5819;SDS011;2936;47.348;9.640;2023-12-29T08:08:25;3.10;;;2.90;;
5819;SDS011;2936;47.348;9.640;2023-12-29T08:10:54;5.20;;;3.28;;
5819;SDS011;2936;47.348;9.640;2023-12-29T08:13:23;3.95;;;2.97;;
5819;SDS011;2936;47.348;9.640;2023-12-29T08:15:51;3.75;;;3.55;;
5819;SDS011;2936;47.348;9.640;2023-12-29T08:18:20;3.58;;;3.30;;
5819;SDS011;2936;47.348;9.640;2023-12-29T08:20:47;3.03;;;2.92;;
5819;SDS011;2936;47.348;9.640;2023-12-29T08:23:15;3.10;;;3.00;;
5819;SDS011;2936;47.348;9.640;2023-12-29T08:25:43;3.67;;;3.47;;
5819;SDS011;2936;47.348;9.640;2023-12-29T08:28:16;3.65;;;3.45;;
5819;SDS011;2936;47.348;9.640;2023-12-29T08:30:43;3.83;;;3.63;;
5819;SDS011;2936;47.348;9.640;2023-12-29T08:33:11;10.30;;;3.28;;
5819;SDS011;2936;47.348;9.640;2023-12-29T08:35:39;5.10;;;4.00;;
5819;SDS011;2936;47.348;9.640;2023-12-29T08:38:07;3.72;;;3.45;;
5819;SDS011;2936;47.348;9.640;2023-12-29T08:40:35;3.63;;;3.33;;
5819;SDS011;2936;47.348;9.640;2023-12-29T08:43:03;2.63;;;2.53;;
5819;SDS011;2936;47.348;9.640;2023-12-29T08:45:33;7.13;;;3.45;;
5819;SDS011;2936;47.348;9.640;2023-12-29T08:48:03;3.10;;;3.00;;
5819;SDS011;2936;47.348;9.640;2023-12-29T08:50:33;3.47;;;3.28;;
5819;SDS011;2936;47.348;9.640;2023-12-29T08:53:01;3.63;;;3.40;;
5819;SDS011;2936;47.348;9.640;2023-12-29T08:55:28;6.10;;;3.97;;
5819;SDS011;2936;47.348;9.640;2023-12-29T08:57:56;2.80;;;2.70;;
5819;SDS011;2936;47.348;9.640;2023-12-29T09:00:26;3.47;;;3.15;;
5819;SDS011;2936;47.348;9.640;2023-12-29T09:02:57;5.72;;;3.13;;
5819;SDS011;2936;47.348;9.640;2023-12-29T09:05:25;2.80;;;2.70;;
5819;SDS011;2936;47.348;9.640;2023-12-29T09:07:52;9.38;;;3.60;;
5819;SDS011;2936;47.348;9.640;2023-12-29T09:10:20;3.65;;;3.38;;
5819;SDS011;2936;47.348;9.640;2023-12-29T09:12:48;8.68;;;7.65;;
5819;SDS011;2936;47.348;9.640;2023-12-29T09:15:16;11.27;;;4.40;;
5819;SDS011;2936;47.348;9.640;2023-12-29T09:17:43;5.57;;;4.50;;
5819;SDS011;2936;47.348;9.640;2023-12-29T09:20:13;9.35;;;7.15;;
5819;SDS011;2936;47.348;9.640;2023-12-29T09:22:41;3.78;;;3.55;;
5819;SDS011;2936;47.348;9.640;2023-12-29T09:25:09;2.92;;;2.72;;
5819;SDS011;2936;47.348;9.640;2023-12-29T09:27:39;3.30;;;3.10;;
5819;SDS011;2936;47.348;9.640;2023-12-29T09:30:07;3.28;;;3.15;;
5819;SDS011;2936;47.348;9.640;2023-12-29T09:32:35;3.58;;;3.22;;
5819;SDS011;2936;47.348;9.640;2023-12-29T09:35:03;3.28;;;2.97;;
5819;SDS011;2936;47.348;9.640;2023-12-29T09:37:34;3.05;;;2.92;;
5819;SDS011;2936;47.348;9.640;2023-12-29T09:40:01;4.88;;;3.47;;
5819;SDS011;2936;47.348;9.640;2023-12-29T09:42:32;3.30;;;2.97;;
5819;SDS011;2936;47.348;9.640;2023-12-29T09:45:01;3.10;;;3.00;;
5819;SDS011;2936;47.348;9.640;2023-12-29T09:47:29;4.00;;;3.75;;
5819;SDS011;2936;47.348;9.640;2023-12-29T09:49:59;3.20;;;3.03;;
5819;SDS011;2936;47.348;9.640;2023-12-29T09:52:29;3.72;;;3.53;;
5819;SDS011;2936;47.348;9.640;2023-12-29T09:54:58;4.07;;;3.78;;
5819;SDS011;2936;47.348;9.640;2023-12-29T09:57:26;7.90;;;4.55;;
5819;SDS011;2936;47.348;9.640;2023-12-29T09:59:55;4.35;;;3.80;;
5819;SDS011;2936;47.348;9.640;2023-12-29T10:02:23;3.97;;;3.67;;
5819;SDS011;2936;47.348;9.640;2023-12-29T10:04:51;3.33;;;3.13;;
5819;SDS011;2936;47.348;9.640;2023-12-29T10:07:21;13.20;;;3.97;;
5819;SDS011;2936;47.348;9.640;2023-12-29T10:09:52;4.57;;;4.20;;
5819;SDS011;2936;47.348;9.640;2023-12-29T10:12:23;3.60;;;3.40;;
5819;SDS011;2936;47.348;9.640;2023-12-29T10:14:53;4.00;;;3.80;;
5819;SDS011;2936;47.348;9.640;2023-12-29T10:17:27;5.32;;;3.72;;
5819;SDS011;2936;47.348;9.640;2023-12-29T10:20:00;4.32;;;4.10;;
5819;SDS011;2936;47.348;9.640;2023-12-29T10:22:32;5.75;;;3.30;;
5819;SDS011;2936;47.348;9.640;2023-12-29T10:25:02;3.63;;;3.42;;
5819;SDS011;2936;47.348;9.640;2023-12-29T10:27:32;5.38;;;3.47;;
5819;SDS011;2936;47.348;9.640;2023-12-29T10:30:00;4.70;;;3.88;;
5819;SDS011;2936;47.348;9.640;2023-12-29T10:32:29;4.60;;;3.85;;
5819;SDS011;2936;47.348;9.640;2023-12-29T10:35:07;5.80;;;3.55;;
5819;SDS011;2936;47.348;9.640;2023-12-29T10:37:35;3.55;;;3.25;;
5819;SDS011;2936;47.348;9.640;2023-12-29T10:40:05;3.28;;;3.08;;
5819;SDS011;2936;47.348;9.640;2023-12-29T10:42:35;17.25;;;4.82;;
5819;SDS011;2936;47.348;9.640;2023-12-29T10:45:18;3.92;;;3.70;;
5819;SDS011;2936;47.348;9.640;2023-12-29T10:47:46;3.35;;;3.15;;
5819;SDS011;2936;47.348;9.640;2023-12-29T10:50:15;4.18;;;3.88;;
5819;SDS011;2936;47.348;9.640;2023-12-29T10:52:42;3.90;;;3.60;;
5819;SDS011;2936;47.348;9.640;2023-12-29T10:55:11;3.90;;;3.60;;
5819;SDS011;2936;47.348;9.640;2023-12-29T10:57:41;5.10;;;3.80;;
5819;SDS011;2936;47.348;9.640;2023-12-29T11:00:09;3.40;;;3.30;;
5819;SDS011;2936;47.348;9.640;2023-12-29T11:02:38;3.28;;;3.10;;
5819;SDS011;2936;47.348;9.640;2023-12-29T11:05:06;3.22;;;3.13;;
5819;SDS011;2936;47.348;9.640;2023-12-29T11:07:36;4.43;;;4.03;;
5819;SDS011;2936;47.348;9.640;2023-12-29T11:10:06;3.38;;;2.95;;
5819;SDS011;2936;47.348;9.640;2023-12-29T11:12:35;3.88;;;3.58;;
5819;SDS011;2936;47.348;9.640;2023-12-29T11:15:07;3.10;;;2.90;;
5819;SDS011;2936;47.348;9.640;2023-12-29T11:17:35;4.20;;;3.90;;
5819;SDS011;2936;47.348;9.640;2023-12-29T11:20:03;2.50;;;2.40;;
5819;SDS011;2936;47.348;9.640;2023-12-29T11:22:32;3.85;;;3.55;;
5819;SDS011;2936;47.348;9.640;2023-12-29T11:25:00;3.58;;;3.38;;
5819;SDS011;2936;47.348;9.640;2023-12-29T11:27:29;5.45;;;4.40;;
5819;SDS011;2936;47.348;9.640;2023-12-29T11:29:58;7.05;;;4.25;;
5819;SDS011;2936;47.348;9.640;2023-12-29T11:32:30;10.60;;;5.47;;
5819;SDS011;2936;47.348;9.640;2023-12-29T11:35:05;5.85;;;4.80;;
5819;SDS011;2936;47.348;9.640;2023-12-29T11:37:36;6.32;;;4.95;;
5819;SDS011;2936;47.348;9.640;2023-12-29T11:40:10;5.72;;;4.93;;
5819;SDS011;2936;47.348;9.640;2023-12-29T11:42:41;4.90;;;4.53;;
5819;SDS011;2936;47.348;9.640;2023-12-29T11:45:25;4.80;;;4.40;;
5819;SDS011;2936;47.348;9.640;2023-12-29T11:47:55;4.15;;;3.78;;
5819;SDS011;2936;47.348;9.640;2023-12-29T11:50:29;7.25;;;4.70;;
5819;SDS011;2936;47.348;9.640;2023-12-29T11:52:57;7.13;;;5.03;;
5819;SDS011;2936;47.348;9.640;2023-12-29T11:55:28;14.82;;;4.70;;
5819;SDS011;2936;47.348;9.640;2023-12-29T11:57:57;31.30;;;9.32;;
5819;SDS011;2936;47.348;9.640;2023-12-29T12:03:28;5.35;;;4.20;;
5819;SDS011;2936;47.348;9.640;2023-12-29T12:05:58;3.70;;;3.47;;
5819;SDS011;2936;47.348;9.640;2023-12-29T12:08:31;4.15;;;3.95;;
5819;SDS011;2936;47.348;9.640;2023-12-29T12:13:46;5.95;;;5.13;;
5819;SDS011;2936;47.348;9.640;2023-12-29T12:19:05;4.47;;;4.20;;
5819;SDS011;2936;47.348;9.640;2023-12-29T12:21:32;21.38;;;4.25;;
5819;SDS011;2936;47.348;9.640;2023-12-29T12:24:03;5.75;;;5.25;;
5819;SDS011;2936;47.348;9.640;2023-12-29T12:26:31;5.68;;;5.28;;
5819;SDS011;2936;47.348;9.640;2023-12-29T12:28:59;3.30;;;3.20;;
5819;SDS011;2936;47.348;9.640;2023-12-29T12:31:27;23.80;;;3.80;;
5819;SDS011;2936;47.348;9.640;2023-12-29T12:33:55;5.05;;;3.30;;
5819;SDS011;2936;47.348;9.640;2023-12-29T12:36:27;9.77;;;4.80;;
5819;SDS011;2936;47.348;9.640;2023-12-29T12:38:55;21.90;;;4.15;;
5819;SDS011;2936;47.348;9.640;2023-12-29T12:41:24;4.18;;;3.83;;
5819;SDS011;2936;47.348;9.640;2023-12-29T12:43:56;20.23;;;4.18;;
5819;SDS011;2936;47.348;9.640;2023-12-29T12:46:25;4.63;;;4.22;;
5819;SDS011;2936;47.348;9.640;2023-12-29T12:48:53;7.80;;;4.28;;
5819;SDS011;2936;47.348;9.640;2023-12-29T12:51:22;3.55;;;3.35;;
5819;SDS011;2936;47.348;9.640;2023-12-29T12:53:52;3.67;;;3.38;;
5819;SDS011;2936;47.348;9.640;2023-12-29T12:56:20;3.55;;;3.33;;
5819;SDS011;2936;47.348;9.640;2023-12-29T12:58:47;3.05;;;2.95;;
5819;SDS011;2936;47.348;9.640;2023-12-29T13:01:16;5.00;;;3.60;;
5819;SDS011;2936;47.348;9.640;2023-12-29T13:03:43;6.28;;;3.88;;
5819;SDS011;2936;47.348;9.640;2023-12-29T13:06:12;3.40;;;3.20;;
5819;SDS011;2936;47.348;9.640;2023-12-29T13:08:41;3.65;;;3.42;;
5819;SDS011;2936;47.348;9.640;2023-12-29T13:11:11;3.17;;;3.08;;
5819;SDS011;2936;47.348;9.640;2023-12-29T13:13:41;2.88;;;2.63;;
5819;SDS011;2936;47.348;9.640;2023-12-29T13:16:08;3.28;;;2.33;;
5819;SDS011;2936;47.348;9.640;2023-12-29T13:18:36;3.13;;;2.80;;
5819;SDS011;2936;47.348;9.640;2023-12-29T13:21:11;3.10;;;2.88;;
5819;SDS011;2936;47.348;9.640;2023-12-29T13:23:39;2.42;;;2.30;;
5819;SDS011;2936;47.348;9.640;2023-12-29T13:26:07;3.28;;;3.08;;
5819;SDS011;2936;47.348;9.640;2023-12-29T13:28:38;4.43;;;2.47;;
5819;SDS011;2936;47.348;9.640;2023-12-29T13:31:07;6.35;;;3.15;;
5819;SDS011;2936;47.348;9.640;2023-12-29T13:33:44;3.47;;;3.17;;
5819;SDS011;2936;47.348;9.640;2023-12-29T13:36:18;4.60;;;3.78;;
5819;SDS011;2936;47.348;9.640;2023-12-29T13:38:49;3.60;;;3.40;;
5819;SDS011;2936;47.348;9.640;2023-12-29T13:41:19;3.25;;;3.05;;
5819;SDS011;2936;47.348;9.640;2023-12-29T13:43:51;2.50;;;2.40;;
5819;SDS011;2936;47.348;9.640;2023-12-29T13:46:20;3.83;;;2.67;;
5819;SDS011;2936;47.348;9.640;2023-12-29T13:48:48;2.40;;;2.30;;
5819;SDS011;2936;47.348;9.640;2023-12-29T13:51:22;2.53;;;2.42;;
5819;SDS011;2936;47.348;9.640;2023-12-29T13:53:56;3.33;;;2.55;;
5819;SDS011;2936;47.348;9.640;2023-12-29T13:56:25;3.45;;;3.28;;
5819;SDS011;2936;47.348;9.640;2023-12-29T13:58:54;2.60;;;2.50;;
5819;SDS011;2936;47.348;9.640;2023-12-29T14:01:34;2.45;;;2.35;;
5819;SDS011;2936;47.348;9.640;2023-12-29T14:04:03;4.95;;;2.95;;
5819;SDS011;2936;47.348;9.640;2023-12-29T14:06:37;2.40;;;2.30;;
5819;SDS011;2936;47.348;9.640;2023-12-29T14:09:06;2.55;;;2.45;;
5819;SDS011;2936;47.348;9.640;2023-12-29T14:11:34;2.45;;;2.25;;
5819;SDS011;2936;47.348;9.640;2023-12-29T14:14:04;3.63;;;3.42;;
5819;SDS011;2936;47.348;9.640;2023-12-29T14:16:31;3.60;;;3.40;;
5819;SDS011;2936;47.348;9.640;2023-12-29T14:19:05;5.00;;;4.40;;
5819;SDS011;2936;47.348;9.640;2023-12-29T14:21:36;5.38;;;3.50;;
5819;SDS011;2936;47.348;9.640;2023-12-29T14:24:08;5.10;;;3.35;;
5819;SDS011;2936;47.348;9.640;2023-12-29T14:26:36;4.28;;;3.97;;
5819;SDS011;2936;47.348;9.640;2023-12-29T14:29:12;3.47;;;3.22;;
5819;SDS011;2936;47.348;9.640;2023-12-29T14:31:41;3.72;;;3.53;;
5819;SDS011;2936;47.348;9.640;2023-12-29T14:34:10;5.03;;;3.38;;
5819;SDS011;2936;47.348;9.640;2023-12-29T14:36:39;19.50;;;4.35;;
5819;SDS011;2936;47.348;9.640;2023-12-29T14:39:08;4.95;;;4.57;;
5819;SDS011;2936;47.348;9.640;2023-12-29T14:41:36;3.67;;;3.47;;
5819;SDS011;2936;47.348;9.640;2023-12-29T14:44:06;4.65;;;4.25;;
5819;SDS011;2936;47.348;9.640;2023-12-29T14:46:37;3.78;;;3.58;;
5819;SDS011;2936;47.348;9.640;2023-12-29T14:49:05;4.43;;;4.13;;
5819;SDS011;2936;47.348;9.640;2023-12-29T14:51:34;6.35;;;5.72;;
5819;SDS011;2936;47.348;9.640;2023-12-29T14:54:02;30.33;;;7.50;;
5819;SDS011;2936;47.348;9.640;2023-12-29T14:56:31;5.50;;;5.15;;
5819;SDS011;2936;47.348;9.640;2023-12-29T14:58:58;4.72;;;4.28;;
5819;SDS011;2936;47.348;9.640;2023-12-29T15:01:27;5.53;;;3.75;;
5819;SDS011;2936;47.348;9.640;2023-12-29T15:03:58;4.80;;;3.45;;
5819;SDS011;2936;47.348;9.640;2023-12-29T15:06:27;4.15;;;3.80;;
5819;SDS011;2936;47.348;9.640;2023-12-29T15:08:55;3.78;;;3.67;;
5819;SDS011;2936;47.348;9.640;2023-12-29T15:11:23;3.67;;;3.47;;
5819;SDS011;2936;47.348;9.640;2023-12-29T15:13:51;4.45;;;3.97;;
5819;SDS011;2936;47.348;9.640;2023-12-29T15:16:22;3.90;;;3.65;;
5819;SDS011;2936;47.348;9.640;2023-12-29T15:18:50;3.80;;;3.50;;
5819;SDS011;2936;47.348;9.640;2023-12-29T15:21:20;7.88;;;4.95;;
5819;SDS011;2936;47.348;9.640;2023-12-29T15:23:47;3.15;;;3.05;;
5819;SDS011;2936;47.348;9.640;2023-12-29T15:26:15;5.32;;;3.75;;
5819;SDS011;2936;47.348;9.640;2023-12-29T15:28:43;4.35;;;3.95;;
5819;SDS011;2936;47.348;9.640;2023-12-29T15:31:12;3.88;;;3.67;;
5819;SDS011;2936;47.348;9.640;2023-12-29T15:33:41;5.15;;;4.90;;